createdAt,value
2018-05-29T00:01:26.248Z,12.70
2018-05-29T00:03:54.507Z,14.13
2018-05-29T00:06:21.973Z,27.83
2018-05-29T00:08:50.227Z,27.40
2018-05-29T00:11:17.703Z,40.10
2018-05-29T00:13:45.187Z,42.65
2018-05-29T00:16:12.657Z,52.33
2018-05-29T00:18:40.129Z,46.97
2018-05-29T00:21:08.382Z,50.05
2018-05-29T00:23:35.851Z,46.40
2018-05-29T00:26:03.527Z,42.40
2018-05-29T00:28:30.988Z,38.42
2018-05-29T00:30:58.467Z,38.22
2018-05-29T00:33:25.953Z,35.47
2018-05-29T00:35:54.194Z,31.70
2018-05-29T00:38:21.682Z,31.20
2018-05-29T00:40:49.930Z,27.95
2018-05-29T00:43:17.418Z,27.83
2018-05-29T00:45:45.706Z,26.37
2018-05-29T00:48:13.221Z,25.20
2018-05-29T00:50:40.695Z,24.23
2018-05-29T00:53:08.175Z,23.87
2018-05-29T00:55:39.130Z,22.48
2018-05-29T00:58:06.602Z,22.83
2018-05-29T01:00:34.091Z,22.58
2018-05-29T01:03:01.566Z,20.37
2018-05-29T01:05:29.059Z,20.85
2018-05-29T01:07:56.518Z,19.27
2018-05-29T01:10:24.015Z,19.12
2018-05-29T01:12:51.538Z,20.23
2018-05-29T01:15:19.010Z,16.80
2018-05-29T01:17:46.502Z,15.55
2018-05-29T01:20:13.989Z,17.27
2018-05-29T01:22:41.465Z,16.83
2018-05-29T01:25:08.941Z,15.77
2018-05-29T01:27:36.435Z,15.20
2018-05-29T01:30:03.922Z,17.48
2018-05-29T01:32:32.148Z,15.75
2018-05-29T01:34:59.633Z,17.30
2018-05-29T01:37:27.962Z,16.37
2018-05-29T01:39:55.456Z,16.55
2018-05-29T01:42:22.994Z,16.52
2018-05-29T01:44:50.462Z,17.87
2018-05-29T01:47:17.927Z,17.83
2018-05-29T01:49:45.422Z,17.67
2018-05-29T01:52:12.912Z,17.00
2018-05-29T01:54:40.373Z,17.40
2018-05-29T01:57:07.836Z,17.85
2018-05-29T01:59:35.318Z,18.05
2018-05-29T02:02:02.805Z,17.40
2018-05-29T02:04:30.362Z,17.90
2018-05-29T02:06:57.767Z,18.60
2018-05-29T02:09:25.272Z,16.83
2018-05-29T02:11:52.720Z,18.70
2018-05-29T02:14:20.969Z,17.77
2018-05-29T02:16:48.429Z,18.65
2018-05-29T02:19:15.915Z,18.70
2018-05-29T02:21:44.177Z,18.45
2018-05-29T02:24:11.637Z,18.52
2018-05-29T02:26:39.887Z,18.15
2018-05-29T02:29:07.346Z,18.98
2018-05-29T02:31:34.827Z,20.10
2018-05-29T02:34:03.074Z,19.08
2018-05-29T02:36:30.582Z,19.12
2018-05-29T02:38:58.058Z,20.37
2018-05-29T02:41:25.560Z,19.77
2018-05-29T02:43:53.046Z,20.40
2018-05-29T02:46:21.275Z,20.80
2018-05-29T02:48:48.737Z,20.12
2018-05-29T02:51:16.250Z,21.50
2018-05-29T02:53:43.727Z,21.48
2018-05-29T02:56:11.201Z,21.42
2018-05-29T02:58:38.690Z,20.88
2018-05-29T03:01:06.627Z,21.00
2018-05-29T03:03:34.094Z,21.02
2018-05-29T03:06:01.575Z,21.58
2018-05-29T03:08:29.818Z,20.35
2018-05-29T03:10:57.319Z,21.00
2018-05-29T03:13:25.563Z,20.88
2018-05-29T03:15:53.043Z,21.37
2018-05-29T03:18:20.526Z,22.27
2018-05-29T03:20:48.013Z,23.02
2018-05-29T03:23:15.507Z,21.90
2018-05-29T03:25:43.001Z,22.77
2018-05-29T03:28:10.473Z,22.58
2018-05-29T03:30:37.966Z,22.58
2018-05-29T03:33:05.463Z,20.23
2018-05-29T03:35:33.698Z,21.58
2018-05-29T03:38:01.177Z,21.90
2018-05-29T03:40:29.427Z,20.95
2018-05-29T03:42:56.907Z,21.52
2018-05-29T03:45:24.377Z,21.70
2018-05-29T03:47:52.636Z,21.58
2018-05-29T03:50:20.140Z,23.05
2018-05-29T03:52:47.616Z,21.75
2018-05-29T03:55:15.162Z,21.65
2018-05-29T03:57:42.641Z,23.27
2018-05-29T04:00:10.169Z,22.30
2018-05-29T04:02:37.648Z,24.52
2018-05-29T04:05:05.161Z,24.12
2018-05-29T04:07:33.381Z,23.30
2018-05-29T04:10:00.888Z,22.80
2018-05-29T04:12:28.354Z,23.83
2018-05-29T04:14:55.825Z,23.33
2018-05-29T04:17:23.318Z,23.27
2018-05-29T04:19:50.821Z,23.80
2018-05-29T04:22:19.083Z,25.02
2018-05-29T04:24:46.555Z,23.38
2018-05-29T04:27:14.832Z,25.12
2018-05-29T04:29:43.093Z,25.15
2018-05-29T04:32:10.570Z,24.00
2018-05-29T04:34:38.810Z,23.08
2018-05-29T04:37:06.269Z,25.33
2018-05-29T04:39:33.751Z,25.17
2018-05-29T04:42:01.982Z,24.73
2018-05-29T04:44:29.474Z,24.87
2018-05-29T04:46:56.977Z,25.37
2018-05-29T04:49:25.403Z,25.58
2018-05-29T04:51:53.809Z,23.20
2018-05-29T04:54:22.044Z,22.65
2018-05-29T04:56:49.537Z,23.65
2018-05-29T04:59:17.774Z,24.42
2018-05-29T05:01:45.266Z,22.73
2018-05-29T05:04:13.507Z,22.48
2018-05-29T05:06:40.999Z,22.65
2018-05-29T05:09:09.230Z,23.45
2018-05-29T05:11:36.698Z,22.30
2018-05-29T05:14:04.207Z,22.92
2018-05-29T05:16:31.692Z,23.77
2018-05-29T05:18:59.177Z,22.08
2018-05-29T05:21:26.681Z,22.23
2018-05-29T05:23:54.150Z,21.67
2018-05-29T05:26:21.640Z,22.25
2018-05-29T05:28:49.107Z,22.37
2018-05-29T05:31:16.585Z,21.48
2018-05-29T05:33:44.823Z,20.90
2018-05-29T05:36:12.302Z,20.67
2018-05-29T05:38:39.782Z,19.92
2018-05-29T05:41:08.027Z,20.75
2018-05-29T05:43:35.560Z,19.85
2018-05-29T05:46:03.131Z,19.65
2018-05-29T05:48:30.564Z,20.48
2018-05-29T05:50:58.042Z,19.35
2018-05-29T05:53:26.294Z,19.37
2018-05-29T05:55:53.800Z,19.70
2018-05-29T05:58:21.319Z,19.25
2018-05-29T06:00:48.826Z,18.23
2018-05-29T06:03:16.304Z,19.40
2018-05-29T06:05:44.572Z,18.23
2018-05-29T06:08:12.802Z,17.90
2018-05-29T06:10:40.329Z,18.87
2018-05-29T06:13:07.824Z,17.12
2018-05-29T06:15:35.358Z,16.70
2018-05-29T06:18:03.665Z,16.62
2018-05-29T06:20:31.146Z,16.23
2018-05-29T06:22:58.624Z,16.10
2018-05-29T06:25:26.870Z,15.95
2018-05-29T06:27:54.351Z,15.80
2018-05-29T06:30:22.606Z,14.87
2018-05-29T06:32:50.131Z,15.30
2018-05-29T06:35:17.584Z,14.75
2018-05-29T06:37:45.081Z,14.00
2018-05-29T06:40:14.182Z,13.93
2018-05-29T06:42:41.666Z,13.45
2018-05-29T06:45:09.254Z,14.38
2018-05-29T06:47:36.634Z,13.10
2018-05-29T06:50:04.096Z,14.23
2018-05-29T06:52:31.588Z,14.48
2018-05-29T06:54:59.805Z,13.35
2018-05-29T06:57:27.290Z,12.73
2018-05-29T06:59:54.766Z,13.30
2018-05-29T07:02:23.023Z,12.57
2018-05-29T07:04:50.477Z,13.45
2018-05-29T07:07:17.986Z,12.73
2018-05-29T07:09:45.490Z,13.05
2018-05-29T07:12:12.956Z,12.45
2018-05-29T07:14:40.450Z,12.00
2018-05-29T07:17:07.906Z,12.30
2018-05-29T07:19:35.386Z,11.65
2018-05-29T07:22:02.863Z,10.80
2018-05-29T07:24:30.360Z,11.15
2018-05-29T07:26:58.588Z,11.38
2018-05-29T07:29:26.050Z,11.65
2018-05-29T07:31:53.535Z,10.77
2018-05-29T07:34:21.782Z,11.52
2018-05-29T07:36:49.345Z,11.27
2018-05-29T07:39:16.816Z,10.90
2018-05-29T07:41:44.294Z,11.25
2018-05-29T07:44:12.545Z,10.00
2018-05-29T07:46:40.039Z,10.10
2018-05-29T07:49:07.531Z,11.00
2018-05-29T07:51:35.040Z,11.25
2018-05-29T07:54:03.290Z,10.73
2018-05-29T07:56:30.777Z,9.52
2018-05-29T07:58:59.019Z,10.63
2018-05-29T08:01:26.493Z,10.10
2018-05-29T08:03:53.977Z,10.60
2018-05-29T08:06:21.498Z,10.15
2018-05-29T08:08:49.718Z,9.57
2018-05-29T08:11:17.183Z,9.73
2018-05-29T08:13:44.666Z,10.70
2018-05-29T08:16:12.129Z,10.00
2018-05-29T08:18:39.614Z,9.65
2018-05-29T08:21:07.082Z,9.82
2018-05-29T08:23:35.306Z,9.90
2018-05-29T08:26:02.819Z,10.10
2018-05-29T08:28:31.070Z,10.90
2018-05-29T08:30:58.571Z,10.40
2018-05-29T08:33:26.036Z,10.48
2018-05-29T08:35:53.522Z,10.50
2018-05-29T08:38:21.018Z,10.95
2018-05-29T08:40:49.262Z,10.48
2018-05-29T08:43:16.741Z,9.98
2018-05-29T08:45:44.227Z,10.52
2018-05-29T08:48:11.710Z,9.55
2018-05-29T08:50:39.221Z,10.98
2018-05-29T08:53:07.462Z,11.15
2018-05-29T08:55:34.957Z,10.95
2018-05-29T08:58:03.181Z,10.82
2018-05-29T09:00:30.644Z,10.52
2018-05-29T09:02:58.107Z,9.45
2018-05-29T09:05:25.583Z,10.25
2018-05-29T09:07:53.075Z,10.27
2018-05-29T09:10:21.297Z,9.43
2018-05-29T09:12:48.798Z,9.48
2018-05-29T09:15:17.018Z,9.80
2018-05-29T09:17:44.493Z,9.60
2018-05-29T09:20:11.966Z,8.75
2018-05-29T09:22:39.454Z,8.43
2018-05-29T09:25:07.714Z,8.40
2018-05-29T09:27:35.991Z,8.07
2018-05-29T09:30:03.481Z,8.88
2018-05-29T09:32:31.021Z,7.65
2018-05-29T09:34:58.425Z,7.28
2018-05-29T09:37:25.906Z,6.87
2018-05-29T09:39:53.367Z,7.22
2018-05-29T09:42:20.827Z,7.32
2018-05-29T09:44:48.362Z,7.35
2018-05-29T09:47:15.779Z,7.03
2018-05-29T09:49:43.277Z,7.12
2018-05-29T09:52:10.787Z,7.22
2018-05-29T09:54:38.668Z,7.30
2018-05-29T09:57:06.134Z,7.22
2018-05-29T09:59:33.601Z,7.72
2018-05-29T10:02:01.087Z,7.78
2018-05-29T10:04:28.555Z,8.13
2018-05-29T10:06:56.058Z,7.95
2018-05-29T10:09:23.476Z,8.20
2018-05-29T10:11:52.637Z,8.18
2018-05-29T10:14:20.118Z,8.48
2018-05-29T10:16:47.608Z,8.57
2018-05-29T10:19:15.117Z,8.52
2018-05-29T10:21:42.569Z,8.35
2018-05-29T10:24:10.053Z,8.60
2018-05-29T10:26:37.514Z,8.93
2018-05-29T10:29:05.742Z,8.70
2018-05-29T10:31:33.219Z,8.95
2018-05-29T10:34:00.697Z,9.07
2018-05-29T10:36:28.170Z,8.73
2018-05-29T10:38:56.404Z,8.45
2018-05-29T10:41:23.942Z,8.88
2018-05-29T10:43:51.459Z,8.18
2018-05-29T10:46:19.730Z,8.52
2018-05-29T10:48:47.966Z,9.20
2018-05-29T10:51:15.450Z,9.70
2018-05-29T10:53:42.919Z,8.68
2018-05-29T10:56:11.159Z,8.70
2018-05-29T10:58:38.624Z,7.78
2018-05-29T11:01:06.096Z,8.50
2018-05-29T11:03:33.558Z,8.55
2018-05-29T11:06:01.038Z,8.45
2018-05-29T11:08:29.283Z,7.90
2018-05-29T11:10:56.771Z,7.97
2018-05-29T11:13:25.017Z,8.43
2018-05-29T11:15:52.508Z,8.02
2018-05-29T11:18:19.999Z,9.45
2018-05-29T11:20:47.470Z,9.10
2018-05-29T11:23:14.926Z,9.50
2018-05-29T11:25:42.403Z,8.57
2018-05-29T11:28:09.891Z,8.65
2018-05-29T11:30:38.147Z,9.43
2018-05-29T11:33:05.601Z,8.50
2018-05-29T11:35:33.852Z,8.43
2018-05-29T11:38:01.322Z,8.15
2018-05-29T11:40:28.802Z,8.10
2018-05-29T11:42:57.051Z,8.00
2018-05-29T11:45:24.535Z,8.35
2018-05-29T11:47:52.757Z,7.93
2018-05-29T11:50:20.242Z,8.32
2018-05-29T11:52:47.721Z,8.55
2018-05-29T11:55:15.958Z,8.70
2018-05-29T11:57:44.187Z,8.38
2018-05-29T12:00:12.431Z,8.05
2018-05-29T12:02:39.899Z,8.82
2018-05-29T12:05:07.380Z,8.80
2018-05-29T12:07:34.939Z,9.00
2018-05-29T12:10:03.178Z,8.82
2018-05-29T12:12:31.406Z,8.80
2018-05-29T12:14:58.906Z,8.82
2018-05-29T12:17:26.385Z,8.60
2018-05-29T12:19:54.622Z,9.23
2018-05-29T12:22:22.160Z,8.93
2018-05-29T12:24:50.363Z,9.07
2018-05-29T12:27:17.827Z,8.43
2018-05-29T12:29:45.298Z,9.15
2018-05-29T12:32:12.776Z,9.48
2018-05-29T12:34:41.018Z,10.02
2018-05-29T12:37:08.504Z,9.60
2018-05-29T12:39:36.750Z,8.77
2018-05-29T12:42:04.216Z,8.88
2018-05-29T12:44:32.479Z,9.40
2018-05-29T12:46:59.935Z,9.68
2018-05-29T12:49:27.426Z,8.95
2018-05-29T12:51:56.462Z,9.15
2018-05-29T12:54:23.918Z,9.02
2018-05-29T12:56:51.394Z,8.93
2018-05-29T12:59:18.875Z,9.30
2018-05-29T13:01:46.341Z,9.73
2018-05-29T13:04:14.591Z,8.88
2018-05-29T13:06:42.089Z,9.93
2018-05-29T13:09:09.583Z,10.07
2018-05-29T13:11:37.070Z,9.75
2018-05-29T13:14:04.540Z,9.65
2018-05-29T13:16:32.797Z,9.13
2018-05-29T13:19:00.286Z,9.15
2018-05-29T13:21:28.521Z,9.07
2018-05-29T13:23:55.986Z,9.90
2018-05-29T13:26:23.671Z,8.80
2018-05-29T13:28:51.893Z,9.07
2018-05-29T13:31:19.405Z,8.93
2018-05-29T13:33:47.667Z,9.45
2018-05-29T13:36:15.168Z,9.65
2018-05-29T13:38:42.645Z,9.70
2018-05-29T13:41:10.151Z,9.98
2018-05-29T13:43:37.617Z,10.40
2018-05-29T13:46:05.862Z,9.82
2018-05-29T13:48:33.356Z,10.23
2018-05-29T13:51:01.596Z,9.48
2018-05-29T13:53:29.076Z,10.07
2018-05-29T13:55:56.540Z,10.15
2018-05-29T13:58:24.798Z,10.15
2018-05-29T14:00:52.272Z,10.02
2018-05-29T14:03:20.588Z,9.88
2018-05-29T14:05:48.809Z,9.55
2018-05-29T14:08:16.293Z,10.00
2018-05-29T14:10:44.512Z,9.82
2018-05-29T14:13:12.007Z,9.75
2018-05-29T14:15:39.478Z,9.68
2018-05-29T14:18:07.754Z,8.27
2018-05-29T14:20:36.010Z,6.87
2018-05-29T14:23:03.491Z,7.57
2018-05-29T14:25:31.716Z,7.43
2018-05-29T14:27:59.203Z,6.97
2018-05-29T14:30:26.679Z,7.15
2018-05-29T14:32:54.973Z,6.97
2018-05-29T14:35:22.467Z,7.22
2018-05-29T14:37:49.928Z,7.22
2018-05-29T14:40:17.411Z,7.65
2018-05-29T14:42:44.868Z,7.45
2018-05-29T14:45:13.128Z,7.22
2018-05-29T14:47:42.218Z,7.22
2018-05-29T14:50:09.699Z,7.72
2018-05-29T14:52:37.942Z,6.80
2018-05-29T14:55:06.178Z,7.43
2018-05-29T14:57:33.668Z,7.60
2018-05-29T15:00:01.178Z,7.37
2018-05-29T15:02:29.531Z,7.55
2018-05-29T15:04:56.999Z,8.30
2018-05-29T15:07:24.478Z,7.82
2018-05-29T15:09:51.946Z,8.25
2018-05-29T15:12:19.447Z,7.80
2018-05-29T15:14:46.918Z,8.15
2018-05-29T15:17:14.389Z,8.45
2018-05-29T15:19:42.670Z,7.85
2018-05-29T15:22:10.938Z,8.70
2018-05-29T15:24:38.421Z,8.20
2018-05-29T15:27:05.907Z,8.43
2018-05-29T15:29:33.386Z,8.43
2018-05-29T15:32:00.853Z,7.82
2018-05-29T15:34:28.340Z,9.07
2018-05-29T15:36:56.570Z,8.63
2018-05-29T15:39:24.041Z,8.50
2018-05-29T15:41:51.523Z,9.30
2018-05-29T15:44:19.777Z,9.38
2018-05-29T15:46:47.259Z,9.50
2018-05-29T15:49:15.486Z,9.68
2018-05-29T15:51:42.968Z,8.55
2018-05-29T15:54:10.494Z,9.77
2018-05-29T15:56:38.008Z,9.52
2018-05-29T15:59:06.237Z,9.50
2018-05-29T16:01:33.740Z,8.93
2018-05-29T16:04:01.975Z,9.63
2018-05-29T16:06:29.434Z,9.13
2018-05-29T16:08:56.941Z,9.48
2018-05-29T16:11:24.420Z,8.90
2018-05-29T16:13:51.900Z,8.75
2018-05-29T16:16:19.378Z,9.18
2018-05-29T16:18:46.866Z,8.95
2018-05-29T16:21:15.136Z,9.02
2018-05-29T16:23:43.378Z,8.95
2018-05-29T16:26:10.847Z,9.45
2018-05-29T16:28:38.333Z,8.63
2018-05-29T16:31:05.861Z,9.15
2018-05-29T16:33:33.622Z,8.77
2018-05-29T16:36:01.083Z,8.65
2018-05-29T16:38:28.551Z,8.18
2018-05-29T16:40:56.856Z,8.75
2018-05-29T16:43:24.343Z,8.07
2018-05-29T16:45:51.825Z,8.30
2018-05-29T16:48:19.313Z,7.80
2018-05-29T16:50:47.770Z,7.57
2018-05-29T16:53:15.235Z,6.85
2018-05-29T16:55:43.474Z,7.20
2018-05-29T16:58:10.950Z,6.90
2018-05-29T17:00:38.406Z,6.30
2018-05-29T17:03:05.878Z,6.68
2018-05-29T17:05:33.345Z,6.47
2018-05-29T17:08:01.599Z,6.25
2018-05-29T17:10:29.066Z,6.72
2018-05-29T17:12:56.575Z,6.72
2018-05-29T17:15:24.088Z,6.47
2018-05-29T17:17:51.522Z,6.68
2018-05-29T17:20:18.998Z,6.72
2018-05-29T17:22:46.458Z,6.85
2018-05-29T17:25:14.680Z,7.18
2018-05-29T17:27:42.185Z,7.30
2018-05-29T17:30:09.691Z,7.20
2018-05-29T17:32:37.146Z,7.40
2018-05-29T17:35:04.624Z,7.57
2018-05-29T17:37:32.089Z,7.18
2018-05-29T17:39:59.715Z,7.35
2018-05-29T17:42:27.242Z,7.85
2018-05-29T17:44:55.483Z,7.28
2018-05-29T17:47:23.050Z,7.68
2018-05-29T17:49:50.530Z,7.95
2018-05-29T17:52:18.823Z,7.97
2018-05-29T17:54:47.088Z,8.10
2018-05-29T17:57:15.345Z,7.47
2018-05-29T17:59:42.810Z,7.82
2018-05-29T18:02:10.316Z,8.43
2018-05-29T18:04:37.862Z,8.13
2018-05-29T18:07:05.334Z,8.00
2018-05-29T18:09:32.894Z,7.78
2018-05-29T18:12:00.454Z,8.18
2018-05-29T18:14:27.932Z,8.75
2018-05-29T18:16:55.448Z,7.80
2018-05-29T18:19:22.942Z,7.90
2018-05-29T18:21:50.430Z,7.57
2018-05-29T18:24:17.901Z,8.05
2018-05-29T18:26:46.242Z,8.10
2018-05-29T18:29:13.622Z,7.78
2018-05-29T18:31:41.198Z,7.62
2018-05-29T18:34:09.485Z,7.70
2018-05-29T18:36:36.971Z,8.30
2018-05-29T18:39:07.343Z,7.50
2018-05-29T18:41:34.848Z,7.30
2018-05-29T18:44:02.311Z,8.88
2018-05-29T18:46:29.803Z,8.43
2018-05-29T18:48:57.284Z,8.65
2018-05-29T18:51:25.517Z,8.45
2018-05-29T18:53:52.982Z,8.45
2018-05-29T18:56:20.469Z,8.10
2018-05-29T18:58:48.714Z,7.35
2018-05-29T19:01:16.199Z,8.23
2018-05-29T19:03:44.427Z,7.57
2018-05-29T19:06:11.909Z,7.72
2018-05-29T19:08:39.645Z,7.87
2018-05-29T19:11:07.133Z,8.30
2018-05-29T19:13:34.595Z,8.25
2018-05-29T19:16:02.113Z,7.80
2018-05-29T19:18:29.582Z,8.23
2018-05-29T19:20:57.047Z,7.85
2018-05-29T19:23:24.569Z,8.32
2018-05-29T19:25:52.806Z,8.48
2018-05-29T19:28:20.294Z,7.60
2018-05-29T19:30:48.525Z,8.13
2018-05-29T19:33:16.006Z,7.90
2018-05-29T19:35:44.291Z,9.13
2018-05-29T19:38:12.532Z,9.05
2018-05-29T19:40:40.014Z,8.68
2018-05-29T19:43:08.290Z,9.63
2018-05-29T19:45:36.527Z,9.18
2018-05-29T19:48:04.013Z,9.00
2018-05-29T19:50:31.509Z,10.00
2018-05-29T19:52:59.021Z,8.70
2018-05-29T19:55:26.496Z,9.50
2018-05-29T19:57:53.971Z,9.80
2018-05-29T20:00:21.456Z,9.63
2018-05-29T20:02:49.785Z,9.48
2018-05-29T20:05:19.051Z,10.05
2018-05-29T20:07:46.539Z,10.55
2018-05-29T20:10:14.074Z,9.98
2018-05-29T20:12:41.584Z,10.50
2018-05-29T20:15:09.073Z,10.35
2018-05-29T20:17:36.576Z,10.57
2018-05-29T20:20:04.883Z,9.77
2018-05-29T20:22:32.322Z,10.43
2018-05-29T20:25:00.572Z,12.32
2018-05-29T20:27:28.049Z,11.90
2018-05-29T20:29:56.310Z,11.40
2018-05-29T20:32:23.834Z,10.85
2018-05-29T20:34:51.310Z,10.77
2018-05-29T20:37:18.801Z,11.48
2018-05-29T20:39:47.079Z,10.88
2018-05-29T20:42:15.316Z,10.73
2018-05-29T20:44:42.806Z,10.05
2018-05-29T20:47:11.036Z,9.60
2018-05-29T20:49:38.510Z,10.07
2018-05-29T20:52:06.003Z,9.32
2018-05-29T20:54:34.637Z,10.80
2018-05-29T20:57:02.112Z,11.43
2018-05-29T20:59:29.662Z,10.80
2018-05-29T21:01:57.147Z,11.23
2018-05-29T21:04:25.393Z,9.57
2018-05-29T21:06:52.869Z,9.18
2018-05-29T21:09:20.349Z,9.55
2018-05-29T21:11:48.624Z,8.77
2018-05-29T21:14:16.863Z,9.43
2018-05-29T21:16:44.358Z,9.43
2018-05-29T21:19:12.582Z,10.93
2018-05-29T21:21:40.081Z,9.85
2018-05-29T21:24:07.550Z,10.55
2018-05-29T21:26:35.789Z,10.70
2018-05-29T21:29:04.051Z,10.35
2018-05-29T21:31:31.548Z,10.20
2018-05-29T21:33:59.872Z,11.15
2018-05-29T21:36:27.345Z,11.77
2018-05-29T21:38:55.586Z,12.98
2018-05-29T21:41:23.054Z,13.88
2018-05-29T21:43:50.567Z,16.17
2018-05-29T21:46:18.041Z,15.40
2018-05-29T21:48:46.307Z,15.20
2018-05-29T21:51:14.557Z,16.08
2018-05-29T21:53:42.038Z,16.12
2018-05-29T21:56:09.534Z,16.42
2018-05-29T21:58:37.018Z,15.55
2018-05-29T22:01:04.518Z,17.08
2018-05-29T22:03:32.750Z,15.75
2018-05-29T22:06:00.225Z,17.62
2018-05-29T22:08:27.725Z,17.60
2018-05-29T22:10:55.197Z,19.00
2018-05-29T22:13:22.680Z,18.95
2018-05-29T22:15:50.158Z,21.70
2018-05-29T22:18:17.620Z,23.17
2018-05-29T22:20:45.123Z,24.08
2018-05-29T22:23:12.611Z,23.58
2018-05-29T22:25:40.125Z,23.58
2018-05-29T22:28:07.586Z,23.08
2018-05-29T22:30:35.083Z,23.15
2018-05-29T22:33:02.554Z,22.50
2018-05-29T22:35:30.041Z,20.88
2018-05-29T22:37:58.270Z,20.17
2018-05-29T22:40:25.750Z,19.75
2018-05-29T22:42:53.236Z,21.75
2018-05-29T22:45:21.491Z,22.40
2018-05-29T22:47:48.962Z,24.63
2018-05-29T22:50:17.218Z,23.70
2018-05-29T22:52:44.730Z,24.23
2018-05-29T22:55:12.198Z,22.60
2018-05-29T22:57:39.682Z,21.42
2018-05-29T23:00:07.191Z,21.15
2018-05-29T23:02:34.660Z,18.55
2018-05-29T23:05:02.133Z,18.90
2018-05-29T23:07:29.626Z,19.25
2018-05-29T23:09:57.089Z,18.77
2018-05-29T23:12:25.343Z,21.45
2018-05-29T23:14:52.821Z,20.50
2018-05-29T23:17:20.319Z,21.98
2018-05-29T23:19:47.789Z,22.00
2018-05-29T23:22:15.272Z,23.05
2018-05-29T23:24:42.751Z,21.35
2018-05-29T23:27:10.233Z,23.48
2018-05-29T23:29:37.703Z,24.58
2018-05-29T23:32:05.199Z,26.17
2018-05-29T23:34:32.667Z,24.95
2018-05-29T23:37:00.143Z,25.00
2018-05-29T23:39:28.393Z,24.90
2018-05-29T23:41:55.881Z,26.35
2018-05-29T23:44:23.383Z,25.30
2018-05-29T23:46:50.853Z,24.75
2018-05-29T23:49:18.548Z,24.95
2018-05-29T23:51:46.014Z,24.40
2018-05-29T23:54:14.258Z,24.77
2018-05-29T23:56:41.745Z,25.62
2018-05-29T23:59:10.006Z,24.00
